createdAt,value
2018-11-29T00:00:39.480Z,153.60
2018-11-29T00:03:09.883Z,154.73
2018-11-29T00:05:43.995Z,146.93
2018-11-29T00:08:18.393Z,156.37
2018-11-29T00:10:46.643Z,145.37
2018-11-29T00:13:14.704Z,163.07
2018-11-29T00:15:42.735Z,154.23
2018-11-29T00:18:13.210Z,185.10
2018-11-29T00:20:41.179Z,160.07
2018-11-29T00:23:09.225Z,163.37
2018-11-29T00:25:37.295Z,148.30
2018-11-29T00:28:06.033Z,156.60
2018-11-29T00:30:34.267Z,156.27
2018-11-29T00:33:02.338Z,159.43
2018-11-29T00:35:30.424Z,157.37
2018-11-29T00:37:58.555Z,164.53
2018-11-29T00:40:27.918Z,159.43
2018-11-29T00:42:56.117Z,162.37
2018-11-29T00:45:24.159Z,159.60
2018-11-29T00:47:52.351Z,162.17
2018-11-29T00:50:20.780Z,159.50
2018-11-29T00:52:52.178Z,150.10
2018-11-29T00:55:21.759Z,154.03
2018-11-29T00:57:50.054Z,153.53
2018-11-29T01:00:20.244Z,151.80
2018-11-29T01:02:48.564Z,152.47
2018-11-29T01:05:20.496Z,161.23
2018-11-29T01:07:49.542Z,160.53
2018-11-29T01:10:18.110Z,161.37
2018-11-29T01:12:46.886Z,145.67
2018-11-29T01:15:17.942Z,146.70
2018-11-29T01:17:47.149Z,151.60
2018-11-29T01:20:16.923Z,147.17
2018-11-29T01:22:44.938Z,165.33
2018-11-29T01:25:14.155Z,169.90
2018-11-29T01:27:43.767Z,169.20
2018-11-29T01:30:13.094Z,168.00
2018-11-29T01:32:41.116Z,184.87
2018-11-29T01:35:10.958Z,164.43
2018-11-29T01:37:38.999Z,160.93
2018-11-29T01:40:10.028Z,160.57
2018-11-29T01:42:37.966Z,161.80
2018-11-29T01:45:05.991Z,160.67
2018-11-29T01:47:33.979Z,156.77
2018-11-29T01:50:01.954Z,155.13
2018-11-29T01:52:29.904Z,162.10
2018-11-29T01:54:57.827Z,162.97
2018-11-29T01:57:25.808Z,162.67
2018-11-29T01:59:53.839Z,154.80
2018-11-29T02:02:21.767Z,167.77
2018-11-29T02:04:50.062Z,164.87
2018-11-29T02:07:24.735Z,162.33
2018-11-29T02:09:57.283Z,171.00
2018-11-29T02:12:25.292Z,196.40
2018-11-29T02:14:53.235Z,168.40
2018-11-29T02:17:21.215Z,167.27
2018-11-29T02:19:49.142Z,167.30
2018-11-29T02:22:17.114Z,157.23
2018-11-29T02:24:45.191Z,173.30
2018-11-29T02:27:13.152Z,158.47
2018-11-29T02:29:41.147Z,168.00
2018-11-29T02:32:09.176Z,166.00
2018-11-29T02:34:37.170Z,170.83
2018-11-29T02:37:05.405Z,171.87
2018-11-29T02:39:33.439Z,155.73
2018-11-29T02:42:01.383Z,156.93
2018-11-29T02:44:29.387Z,155.10
2018-11-29T02:46:57.518Z,157.70
2018-11-29T02:49:25.480Z,169.97
2018-11-29T02:51:53.411Z,168.13
2018-11-29T02:54:21.650Z,156.03
2018-11-29T02:56:49.628Z,157.43
2018-11-29T02:59:17.568Z,157.47
2018-11-29T03:01:47.873Z,156.13
2018-11-29T03:04:17.440Z,159.53
2018-11-29T03:06:45.400Z,161.23
2018-11-29T03:09:13.380Z,164.40
2018-11-29T03:11:41.415Z,142.13
2018-11-29T03:14:09.462Z,146.17
2018-11-29T03:16:37.476Z,146.03
2018-11-29T03:19:05.863Z,145.10
2018-11-29T03:21:33.909Z,153.17
2018-11-29T03:24:02.014Z,150.03
2018-11-29T03:26:30.092Z,155.23
2018-11-29T03:28:59.604Z,150.07
2018-11-29T03:31:27.627Z,156.97
2018-11-29T03:33:55.557Z,151.60
2018-11-29T03:36:23.585Z,155.70
2018-11-29T03:38:51.626Z,165.53
2018-11-29T03:41:19.596Z,160.63
2018-11-29T03:43:47.575Z,150.43
2018-11-29T03:46:15.506Z,154.70
2018-11-29T03:48:43.427Z,165.67
2018-11-29T03:51:11.360Z,153.23
2018-11-29T03:53:39.352Z,167.33
2018-11-29T03:56:07.310Z,153.53
2018-11-29T03:58:35.571Z,164.13
2018-11-29T04:01:03.591Z,157.83
2018-11-29T04:03:31.640Z,167.43
2018-11-29T04:05:59.732Z,137.93
2018-11-29T04:08:27.681Z,150.87
2018-11-29T04:10:55.770Z,141.83
2018-11-29T04:13:23.730Z,155.07
2018-11-29T04:15:51.648Z,149.63
2018-11-29T04:18:19.583Z,174.73
2018-11-29T04:20:47.586Z,140.03
2018-11-29T04:23:15.595Z,157.93
2018-11-29T04:25:43.523Z,150.30
2018-11-29T04:28:11.467Z,171.10
2018-11-29T04:30:40.015Z,151.90
2018-11-29T04:33:07.923Z,155.90
2018-11-29T04:35:35.860Z,140.57
2018-11-29T04:38:04.098Z,154.57
2018-11-29T04:40:32.599Z,140.30
2018-11-29T04:43:00.645Z,150.93
2018-11-29T04:45:48.319Z,155.67
2018-11-29T04:48:16.383Z,160.33
2018-11-29T04:50:44.352Z,150.57
2018-11-29T04:53:12.246Z,162.67
2018-11-29T04:55:40.148Z,157.87
2018-11-29T04:58:08.183Z,153.07
2018-11-29T05:00:36.887Z,157.13
2018-11-29T05:03:05.256Z,162.17
2018-11-29T05:05:33.266Z,142.00
2018-11-29T05:08:01.151Z,159.10
2018-11-29T05:10:29.063Z,154.93
2018-11-29T05:12:57.009Z,173.87
2018-11-29T05:15:24.981Z,155.43
2018-11-29T05:17:52.928Z,149.43
2018-11-29T05:20:20.850Z,143.97
2018-11-29T05:22:48.792Z,142.00
2018-11-29T05:25:17.122Z,148.30
2018-11-29T05:27:44.746Z,136.30
2018-11-29T05:30:13.683Z,145.33
2018-11-29T05:32:41.778Z,141.27
2018-11-29T05:35:11.051Z,149.43
2018-11-29T05:37:39.027Z,151.60
2018-11-29T05:40:10.213Z,143.50
2018-11-29T05:42:38.531Z,144.27
2018-11-29T05:45:07.826Z,154.83
2018-11-29T05:47:35.820Z,158.73
2018-11-29T05:50:06.105Z,144.67
2018-11-29T05:55:10.615Z,157.57
2018-11-29T05:57:38.555Z,141.10
2018-11-29T06:00:10.373Z,143.07
2018-11-29T06:02:38.451Z,149.87
2018-11-29T06:05:08.307Z,135.77
2018-11-29T06:07:36.606Z,139.77
2018-11-29T06:10:04.875Z,150.03
2018-11-29T06:12:33.669Z,141.73
2018-11-29T06:15:01.930Z,132.63
2018-11-29T06:17:29.877Z,151.30
2018-11-29T06:19:57.829Z,136.97
2018-11-29T06:22:26.082Z,141.10
2018-11-29T06:24:54.038Z,146.30
2018-11-29T06:27:22.215Z,145.27
2018-11-29T06:29:50.204Z,141.00
2018-11-29T06:32:18.232Z,144.77
2018-11-29T06:34:46.135Z,147.63
2018-11-29T06:37:16.462Z,161.13
2018-11-29T06:39:44.341Z,148.93
2018-11-29T06:42:12.346Z,140.33
2018-11-29T06:44:40.335Z,148.63
2018-11-29T06:47:08.226Z,150.00
2018-11-29T06:49:36.198Z,153.73
2018-11-29T06:52:05.187Z,138.33
2018-11-29T06:54:33.223Z,130.97
2018-11-29T06:57:01.148Z,136.03
2018-11-29T06:59:29.310Z,148.07
2018-11-29T07:01:57.240Z,145.10
2018-11-29T07:04:25.339Z,139.27
2018-11-29T07:06:56.521Z,151.53
2018-11-29T07:09:24.421Z,144.07
2018-11-29T07:11:52.443Z,145.47
2018-11-29T07:14:20.824Z,132.43
2018-11-29T07:16:48.710Z,124.97
2018-11-29T07:19:16.658Z,141.07
2018-11-29T07:21:51.475Z,136.47
2018-11-29T07:24:19.679Z,150.70
2018-11-29T07:26:49.418Z,142.20
2018-11-29T07:29:17.278Z,145.37
2018-11-29T07:31:45.587Z,131.53
2018-11-29T07:34:13.723Z,144.90
2018-11-29T07:36:41.715Z,142.60
2018-11-29T07:39:10.060Z,129.80
2018-11-29T07:41:39.464Z,138.90
2018-11-29T07:44:11.161Z,150.40
2018-11-29T07:46:39.290Z,141.63
2018-11-29T07:49:07.346Z,137.80
2018-11-29T07:51:35.558Z,142.27
2018-11-29T07:54:03.607Z,144.30
2018-11-29T07:56:31.509Z,141.97
2018-11-29T07:58:59.489Z,145.97
2018-11-29T08:01:28.705Z,143.20
2018-11-29T08:03:56.763Z,145.87
2018-11-29T08:06:24.655Z,153.17
2018-11-29T08:08:52.696Z,148.07
2018-11-29T08:11:20.901Z,155.27
2018-11-29T08:13:48.798Z,145.63
2018-11-29T08:16:16.782Z,145.10
2018-11-29T08:18:44.690Z,150.80
2018-11-29T08:21:12.598Z,132.57
2018-11-29T08:23:40.536Z,152.67
2018-11-29T08:26:08.459Z,140.23
2018-11-29T08:28:39.287Z,145.70
2018-11-29T08:31:07.478Z,134.10
2018-11-29T08:33:40.864Z,146.10
2018-11-29T08:36:10.201Z,139.80
2018-11-29T08:38:39.214Z,153.17
2018-11-29T08:41:07.758Z,148.80
2018-11-29T08:43:36.131Z,150.13
2018-11-29T08:46:04.228Z,143.23
2018-11-29T08:48:32.507Z,157.87
2018-11-29T08:53:34.884Z,150.63
2018-11-29T08:56:08.743Z,154.97
2018-11-29T08:58:36.997Z,147.17
2018-11-29T09:01:06.329Z,141.13
2018-11-29T09:03:34.224Z,150.40
2018-11-29T09:06:02.179Z,142.00
2018-11-29T09:08:36.860Z,147.93
2018-11-29T09:11:05.320Z,144.47
2018-11-29T09:13:33.528Z,165.00
2018-11-29T09:16:01.434Z,146.23
2018-11-29T09:18:31.336Z,171.73
2018-11-29T09:20:59.379Z,155.20
2018-11-29T09:23:27.382Z,156.70
2018-11-29T09:25:56.251Z,149.13
2018-11-29T09:28:24.379Z,164.03
2018-11-29T09:30:54.064Z,154.80
2018-11-29T09:33:22.117Z,160.33
2018-11-29T09:35:50.043Z,158.37
2018-11-29T09:38:21.717Z,165.37
2018-11-29T09:40:56.247Z,153.57
2018-11-29T09:43:24.233Z,165.73
2018-11-29T09:45:52.138Z,160.43
2018-11-29T09:48:20.031Z,160.73
2018-11-29T09:50:48.008Z,157.47
2018-11-29T09:53:15.979Z,169.87
2018-11-29T09:55:43.988Z,165.57
2018-11-29T09:58:14.104Z,183.17
2018-11-29T10:00:42.531Z,168.33
2018-11-29T10:03:15.019Z,170.60
2018-11-29T10:05:44.501Z,164.47
2018-11-29T10:08:15.239Z,181.47
2018-11-29T10:10:43.170Z,163.33
2018-11-29T10:13:11.401Z,182.33
2018-11-29T10:15:39.460Z,169.87
2018-11-29T10:18:08.619Z,175.87
2018-11-29T10:20:36.537Z,164.00
2018-11-29T10:23:05.959Z,174.83
2018-11-29T10:25:34.061Z,170.97
2018-11-29T10:28:07.658Z,162.07
2018-11-29T10:30:47.196Z,159.10
2018-11-29T10:33:15.625Z,174.63
2018-11-29T10:35:44.455Z,159.83
2018-11-29T10:38:12.359Z,168.27
2018-11-29T10:40:41.780Z,162.87
2018-11-29T10:43:10.187Z,174.63
2018-11-29T10:45:38.183Z,158.73
2018-11-29T10:48:11.335Z,165.87
2018-11-29T10:50:39.444Z,154.40
2018-11-29T10:53:08.632Z,176.77
2018-11-29T10:55:36.987Z,162.77
2018-11-29T10:58:06.691Z,162.07
2018-11-29T11:00:40.136Z,154.00
2018-11-29T11:03:13.699Z,164.53
2018-11-29T11:05:45.802Z,151.93
2018-11-29T11:08:13.997Z,159.10
2018-11-29T11:10:41.872Z,150.60
2018-11-29T11:13:09.808Z,165.83
2018-11-29T11:15:38.167Z,147.50
2018-11-29T11:18:07.741Z,160.47
2018-11-29T11:20:37.452Z,160.73
2018-11-29T11:23:08.920Z,158.20
2018-11-29T11:25:38.400Z,150.53
2018-11-29T11:28:08.075Z,163.33
2018-11-29T11:30:39.621Z,149.87
2018-11-29T11:33:07.577Z,164.23
2018-11-29T11:35:35.555Z,159.33
2018-11-29T11:38:03.448Z,151.53
2018-11-29T11:40:31.425Z,156.37
2018-11-29T11:42:59.331Z,157.20
2018-11-29T11:45:27.519Z,152.33
2018-11-29T11:48:03.150Z,159.13
2018-11-29T11:50:26.003Z,167.27
2018-11-29T11:52:55.048Z,151.20
2018-11-29T11:55:29.959Z,142.30
2018-11-29T11:57:52.754Z,150.73
2018-11-29T12:00:25.193Z,155.03
2018-11-29T12:03:07.405Z,153.53
2018-11-29T12:05:35.967Z,143.77
2018-11-29T12:08:06.199Z,158.93
2018-11-29T12:10:35.323Z,149.67
2018-11-29T12:13:03.400Z,157.73
2018-11-29T12:15:31.500Z,159.13
2018-11-29T12:17:59.601Z,153.33
2018-11-29T12:20:27.571Z,151.70
2018-11-29T12:22:55.547Z,152.87
2018-11-29T12:25:23.488Z,156.77
2018-11-29T12:27:52.133Z,146.77
2018-11-29T12:30:24.599Z,145.87
2018-11-29T12:32:56.555Z,159.10
2018-11-29T12:35:24.883Z,152.70
2018-11-29T12:37:53.313Z,148.50
2018-11-29T12:40:21.053Z,149.97
2018-11-29T12:42:48.958Z,156.10
2018-11-29T12:45:17.157Z,149.03
2018-11-29T12:47:45.368Z,152.53
2018-11-29T12:50:18.923Z,152.90
2018-11-29T12:52:47.128Z,161.57
2018-11-29T12:55:16.412Z,152.37
2018-11-29T12:57:44.472Z,152.00
2018-11-29T13:00:17.695Z,149.93
2018-11-29T13:02:49.903Z,149.23
2018-11-29T13:05:18.352Z,177.80
2018-11-29T13:07:46.307Z,160.83
2018-11-29T13:10:16.145Z,146.50
2018-11-29T13:12:44.072Z,159.40
2018-11-29T13:15:16.439Z,146.07
2018-11-29T13:17:44.594Z,159.23
2018-11-29T13:20:14.010Z,154.37
2018-11-29T13:22:42.020Z,150.27
2018-11-29T13:25:14.540Z,136.27
2018-11-29T13:27:42.450Z,141.97
2018-11-29T13:30:13.834Z,154.10
2018-11-29T13:32:43.906Z,146.80
2018-11-29T13:35:16.264Z,151.77
2018-11-29T13:37:49.564Z,140.10
2018-11-29T13:42:45.470Z,146.87
2018-11-29T13:45:13.688Z,150.17
2018-11-29T13:47:42.031Z,135.17
2018-11-29T13:50:14.041Z,149.90
2018-11-29T13:52:42.536Z,144.83
2018-11-29T13:55:12.777Z,145.23
2018-11-29T13:57:42.262Z,147.10
2018-11-29T14:00:25.821Z,143.10
2018-11-29T14:03:01.103Z,145.53
2018-11-29T14:05:29.092Z,145.47
2018-11-29T14:08:03.128Z,149.50
2018-11-29T14:10:31.624Z,140.80
2018-11-29T14:12:59.671Z,133.53
2018-11-29T14:15:28.365Z,138.17
2018-11-29T14:17:57.194Z,150.70
2018-11-29T14:20:25.339Z,135.83
2018-11-29T14:22:53.334Z,141.80
2018-11-29T14:25:21.515Z,140.60
2018-11-29T14:27:51.364Z,142.70
2018-11-29T14:30:22.503Z,135.80
2018-11-29T14:32:51.058Z,133.63
2018-11-29T14:35:19.131Z,139.63
2018-11-29T14:37:47.035Z,138.83
2018-11-29T14:40:18.503Z,132.00
2018-11-29T14:42:46.434Z,132.17
2018-11-29T14:45:16.047Z,124.00
2018-11-29T14:47:44.244Z,132.10
2018-11-29T14:50:20.729Z,134.87
2018-11-29T14:52:49.509Z,146.17
2018-11-29T14:55:17.455Z,131.60
2018-11-29T14:57:45.467Z,129.23
2018-11-29T15:00:13.814Z,128.10
2018-11-29T15:02:42.120Z,129.67
2018-11-29T15:05:19.272Z,132.13
2018-11-29T15:10:21.400Z,127.67
2018-11-29T15:12:49.275Z,134.77
2018-11-29T15:15:17.207Z,131.50
2018-11-29T15:17:46.251Z,136.30
2018-11-29T15:20:20.071Z,148.47
2018-11-29T15:22:48.041Z,123.10
2018-11-29T15:25:16.036Z,121.67
2018-11-29T15:27:44.007Z,120.67
2018-11-29T15:30:14.624Z,126.57
2018-11-29T15:32:42.567Z,115.93
2018-11-29T15:35:10.584Z,126.30
2018-11-29T15:37:38.566Z,125.20
2018-11-29T15:40:12.963Z,122.30
2018-11-29T15:42:44.478Z,122.90
2018-11-29T15:45:19.916Z,140.57
2018-11-29T15:47:48.463Z,122.33
2018-11-29T15:50:17.017Z,142.30
2018-11-29T15:52:45.011Z,125.03
2018-11-29T15:55:15.153Z,130.87
2018-11-29T15:57:43.940Z,133.27
2018-11-29T16:00:15.870Z,148.80
2018-11-29T16:02:44.807Z,133.70
2018-11-29T16:05:12.744Z,131.27
2018-11-29T16:07:40.922Z,132.00
2018-11-29T16:10:13.074Z,135.43
2018-11-29T16:12:41.264Z,125.17
2018-11-29T16:15:14.181Z,130.20
2018-11-29T16:17:42.515Z,126.90
2018-11-29T16:20:13.302Z,124.67
2018-11-29T16:22:41.348Z,132.87
2018-11-29T16:25:10.807Z,133.40
2018-11-29T16:27:38.809Z,128.93
2018-11-29T16:30:17.756Z,125.57
2018-11-29T16:32:45.699Z,137.67
2018-11-29T16:35:13.600Z,126.10
2018-11-29T16:37:41.553Z,128.93
2018-11-29T16:40:09.504Z,128.07
2018-11-29T16:42:37.516Z,131.00
2018-11-29T16:45:09.541Z,125.20
2018-11-29T16:47:37.511Z,137.87
2018-11-29T16:50:08.279Z,134.73
2018-11-29T16:52:36.230Z,133.17
2018-11-29T16:55:05.518Z,131.27
2018-11-29T16:57:33.554Z,145.10
2018-11-29T17:00:01.592Z,140.67
2018-11-29T17:02:29.535Z,138.83
2018-11-29T17:05:01.532Z,150.70
2018-11-29T17:07:29.776Z,144.50
2018-11-29T17:09:58.455Z,141.47
2018-11-29T17:12:26.749Z,143.97
2018-11-29T17:14:54.715Z,145.87
2018-11-29T17:17:22.663Z,140.23
2018-11-29T17:22:25.252Z,142.20
2018-11-29T17:24:53.234Z,138.73
2018-11-29T17:27:21.180Z,145.43
2018-11-29T17:29:49.092Z,140.97
2018-11-29T17:32:17.339Z,141.50
2018-11-29T17:34:45.372Z,160.17
2018-11-29T17:37:13.467Z,156.30
2018-11-29T17:39:41.781Z,148.37
2018-11-29T17:42:09.843Z,137.33
2018-11-29T17:44:37.759Z,137.80
2018-11-29T17:47:09.175Z,140.43
2018-11-29T17:49:37.151Z,138.73
2018-11-29T17:52:05.509Z,137.00
2018-11-29T17:54:34.146Z,145.07
2018-11-29T17:57:02.163Z,140.80
2018-11-29T17:59:30.163Z,149.73
2018-11-29T18:01:58.130Z,144.93
2018-11-29T18:04:26.084Z,150.37
2018-11-29T18:06:54.082Z,150.57
2018-11-29T18:09:22.154Z,146.00
2018-11-29T18:11:50.112Z,149.03
2018-11-29T18:14:18.751Z,157.20
2018-11-29T18:16:46.706Z,155.67
2018-11-29T18:19:14.636Z,152.10
2018-11-29T18:21:43.215Z,164.77
2018-11-29T18:24:10.944Z,149.70
2018-11-29T18:26:39.807Z,154.47
2018-11-29T18:29:08.009Z,143.37
2018-11-29T18:31:35.881Z,145.67
2018-11-29T18:34:03.887Z,156.43
2018-11-29T18:39:09.094Z,146.50
2018-11-29T18:41:37.182Z,148.00
2018-11-29T18:44:05.943Z,145.53
2018-11-29T18:46:33.897Z,141.67
2018-11-29T18:49:01.807Z,150.57
2018-11-29T18:51:29.775Z,145.67
2018-11-29T18:53:57.795Z,154.80
2018-11-29T18:56:25.820Z,155.27
2018-11-29T18:58:54.609Z,151.33
2018-11-29T19:01:22.531Z,146.77
2018-11-29T19:03:54.579Z,154.33
2018-11-29T19:06:22.553Z,152.43
2018-11-29T19:08:50.476Z,162.17
2018-11-29T19:11:18.458Z,152.00
2018-11-29T19:13:46.391Z,176.03
2018-11-29T19:16:14.342Z,156.13
2018-11-29T19:18:42.743Z,156.17
2018-11-29T19:21:10.683Z,144.17
2018-11-29T19:23:38.683Z,146.60
2018-11-29T19:26:07.086Z,139.07
2018-11-29T19:28:35.103Z,149.97
2018-11-29T19:31:03.177Z,142.20
2018-11-29T19:33:31.147Z,149.93
2018-11-29T19:35:59.230Z,140.23
2018-11-29T19:38:27.215Z,151.13
2018-11-29T19:40:55.190Z,141.10
2018-11-29T19:43:23.079Z,155.10
2018-11-29T19:45:51.049Z,152.63
2018-11-29T19:48:19.122Z,145.23
2018-11-29T19:50:47.131Z,147.33
2018-11-29T19:53:17.903Z,153.30
2018-11-29T19:55:47.292Z,147.57
2018-11-29T19:58:15.424Z,147.00
2018-11-29T20:00:44.517Z,156.60
2018-11-29T20:06:08.718Z,137.53
2018-11-29T20:08:36.756Z,145.57
2018-11-29T20:11:05.216Z,147.33
2018-11-29T20:13:33.314Z,149.90
2018-11-29T20:16:01.380Z,144.33
2018-11-29T20:18:29.712Z,156.07
2018-11-29T20:23:31.966Z,146.53
2018-11-29T20:26:00.267Z,149.23
2018-11-29T20:28:29.183Z,148.47
2018-11-29T20:30:57.149Z,144.60
2018-11-29T20:33:26.451Z,153.13
2018-11-29T20:35:54.411Z,139.10
2018-11-29T20:38:22.363Z,148.60
2018-11-29T20:40:50.378Z,148.63
2018-11-29T20:43:18.305Z,147.57
2018-11-29T20:45:55.430Z,139.60
2018-11-29T20:48:26.985Z,146.67
2018-11-29T20:50:56.562Z,147.63
2018-11-29T20:53:26.824Z,155.30
2018-11-29T20:55:54.811Z,148.80
2018-11-29T20:58:22.847Z,157.43
2018-11-29T21:00:50.845Z,150.00
2018-11-29T21:03:19.112Z,159.67
2018-11-29T21:05:47.152Z,150.90
2018-11-29T21:08:15.143Z,166.50
2018-11-29T21:10:43.161Z,149.80
2018-11-29T21:13:11.397Z,169.60
2018-11-29T21:15:41.262Z,154.00
2018-11-29T21:18:12.978Z,158.67
2018-11-29T21:20:41.979Z,147.37
2018-11-29T21:29:56.229Z,134.47
2018-11-29T21:32:27.393Z,145.43
2018-11-29T21:34:55.661Z,149.20
2018-11-29T21:37:23.624Z,153.87
2018-11-29T21:39:51.846Z,160.53
2018-11-29T21:42:19.839Z,164.97
2018-11-29T21:44:47.779Z,156.73
2018-11-29T21:47:15.747Z,158.53
2018-11-29T21:49:43.960Z,168.37
2018-11-29T21:52:11.901Z,165.03
2018-11-29T21:54:39.952Z,156.93
2018-11-29T21:57:07.915Z,175.73
2018-11-29T21:59:35.803Z,161.93
2018-11-29T22:02:03.775Z,163.07
2018-11-29T22:04:31.757Z,162.70
2018-11-29T22:07:01.589Z,157.17
2018-11-29T22:09:29.519Z,157.87
2018-11-29T22:11:57.678Z,165.30
2018-11-29T22:14:25.655Z,167.37
2018-11-29T22:16:53.589Z,161.17
2018-11-29T22:19:21.627Z,160.70
2018-11-29T22:21:49.684Z,169.37
2018-11-29T22:24:17.650Z,170.17
2018-11-29T22:26:45.933Z,169.30
2018-11-29T22:29:13.863Z,180.87
2018-11-29T22:31:41.883Z,173.83
2018-11-29T22:34:09.825Z,183.97
2018-11-29T22:36:38.532Z,184.93
2018-11-29T22:39:08.747Z,178.23
2018-11-29T22:41:36.686Z,179.53
2018-11-29T22:44:04.977Z,179.13
2018-11-29T22:46:32.937Z,161.33
2018-11-29T22:49:00.843Z,172.43
2018-11-29T22:51:28.843Z,168.20
2018-11-29T22:53:56.828Z,168.90
2018-11-29T22:56:24.772Z,176.43
2018-11-29T22:58:52.674Z,171.73
2018-11-29T23:01:25.563Z,150.07
2018-11-29T23:03:54.504Z,175.77
2018-11-29T23:06:22.555Z,176.63
2018-11-29T23:08:50.511Z,153.50
2018-11-29T23:11:20.389Z,192.67
2018-11-29T23:13:48.408Z,189.30
2018-11-29T23:16:19.286Z,170.57
2018-11-29T23:18:47.387Z,219.53
2018-11-29T23:21:15.384Z,203.30
2018-11-29T23:23:43.382Z,198.63
2018-11-29T23:26:11.415Z,181.63
2018-11-29T23:28:39.339Z,194.30
2018-11-29T23:31:08.105Z,199.63
2018-11-29T23:33:36.055Z,209.70
2018-11-29T23:36:04.251Z,188.03
2018-11-29T23:38:32.290Z,214.40
2018-11-29T23:41:00.292Z,202.33
2018-11-29T23:43:28.219Z,214.37
2018-11-29T23:45:56.164Z,197.77
2018-11-29T23:48:24.078Z,215.93
2018-11-29T23:50:52.013Z,202.53
2018-11-29T23:53:21.079Z,207.70
2018-11-29T23:55:53.191Z,191.70
2018-11-29T23:58:21.168Z,213.67
